Terminal Aerodrome Forecast
Issued by NWS

Home | Current Version | Previous Version | Text Only | Print | Product List | Glossary On
Versions: 1 2 3 4 5 6 7 8 9 10 11 12 13
000
FTUS42 TJSJ 291125
TAFJMZ
TAF
TJMZ 291125Z 2912/3012 06005KT P6SM FEW025 BKN060
     FM291530 27010KT P6SM VCTS SCT025CB SCT040
      TEMPO 2918/2920 VRB12KT 5SM TSRA BKN025CB
     FM292330 06005KT P6SM SCT025
      AMD NOT SKED TIL 291500=

USA.gov is the U.S. government's official web portal to all federal, state and local government web resources and services.